Terminal Aerodrome Forecast
Issued by NWS Omaha/Valley, NE

Home | Current Version | Previous Version | Text Only | Print | Product List | Glossary On
Versions: 1 2 3 4 5 6 7 8 9 10 11 12 13 14 15 16 17 18 19 20 21 22 23 24 25 26 27 28 29 30 31 32 33 34 35 36 37 38 39 40
000
FTUS43 KOAX 231120
TAFOMA
TAF
KOMA 231120Z 2312/2412 04006KT P6SM SCT008 BKN100
      TEMPO 2312/2314 5SM BR BKN008
     FM231600 15013G22KT P6SM SCT250
     FM240100 15010KT P6SM SCT080=

USA.gov is the U.S. government's official web portal to all federal, state and local government web resources and services.